Time;durP1;ratioP1;P1;durP2;ratioP2;P2;SDS_P1;SDS_P2;PMS_P1;PMS_P2;Temp;Humidity;BMP_temperature;BMP_pressure;BME280_temperature;BME280_humidity;BME280_pressure;Samples;Min_cycle;Max_cycle;Signal;HPM_P1;HPM_P2
2023/05/10 00:00:31;;;;;;;11.80;9.20;;;;;;;7.59;59.15;98149.18;106710;1276;23890;-78
2023/05/10 00:03:09;;;;;;;14.00;10.00;;;;;;;7.55;58.61;98150.48;106865;1276;22506;-78
2023/05/10 00:05:38;;;;;;;11.90;8.80;;;;;;;7.54;59.03;98148.71;106917;1276;22531;-78
2023/05/10 00:08:06;;;;;;;14.30;9.40;;;;;;;7.52;59.26;98144.80;106710;1276;25394;-79
2023/05/10 00:10:34;;;;;;;11.30;9.90;;;;;;;7.51;59.24;98145.19;106891;1276;22523;-78
2023/05/10 00:13:02;;;;;;;15.10;10.20;;;;;;;7.47;59.29;98140.00;106910;1276;22524;-76
2023/05/10 00:15:30;;;;;;;12.20;10.20;;;;;;;7.47;59.32;98144.29;107114;1276;22536;-79
2023/05/10 00:17:58;;;;;;;14.10;10.00;;;;;;;7.44;58.92;98138.49;107116;1276;22641;-79
2023/05/10 00:20:26;;;;;;;10.70;9.50;;;;;;;7.44;59.46;98139.20;107083;1276;22640;-79
2023/05/10 00:22:54;;;;;;;15.80;9.90;;;;;;;7.42;59.23;98134.81;106948;1276;22522;-77
2023/05/10 00:25:23;;;;;;;17.00;9.90;;;;;;;7.41;59.02;98137.87;106761;1276;22573;-77
2023/05/10 00:27:52;;;;;;;11.80;9.30;;;;;;;7.40;59.36;98135.73;106858;1276;24829;-78
2023/05/10 00:30:20;;;;;;;12.80;9.40;;;;;;;7.38;59.41;98134.87;106921;1276;22660;-79
2023/05/10 00:32:49;;;;;;;18.70;10.10;;;;;;;7.37;59.67;98139.10;106706;1276;22620;-79
2023/05/10 00:35:17;;;;;;;14.70;9.20;;;;;;;7.37;59.86;98139.11;106878;1276;25371;-78
2023/05/10 00:37:45;;;;;;;10.90;9.80;;;;;;;7.36;59.91;98134.34;106932;1276;24377;-80
2023/05/10 00:40:13;;;;;;;10.90;9.40;;;;;;;7.34;59.58;98134.93;106811;1276;22523;-81
2023/05/10 00:42:43;;;;;;;10.80;9.80;;;;;;;7.31;59.80;98134.14;106788;1276;22644;-78
2023/05/10 00:45:11;;;;;;;10.50;9.10;;;;;;;7.30;59.49;98133.45;106931;1276;25381;-77
2023/05/10 00:47:40;;;;;;;11.40;8.80;;;;;;;7.28;59.28;98129.15;106736;1276;25442;-77
2023/05/10 00:50:09;;;;;;;11.80;9.30;;;;;;;7.25;59.56;98129.86;106835;1276;22528;-77
2023/05/10 00:52:37;;;;;;;11.90;8.70;;;;;;;7.23;59.61;98132.21;106922;1263;24351;-77
2023/05/10 00:55:11;;;;;;;12.10;9.20;;;;;;;7.23;60.05;98129.00;106913;1276;22589;-76
2023/05/10 00:57:39;;;;;;;12.40;9.40;;;;;;;7.23;59.85;98124.12;107123;1276;22643;-77
2023/05/10 01:00:08;;;;;;;11.20;9.00;;;;;;;7.21;59.60;98123.59;106889;1276;24366;-77
2023/05/10 01:02:36;;;;;;;9.90;8.00;;;;;;;7.19;59.77;98118.98;106949;1276;26015;-76
2023/05/10 01:05:05;;;;;;;11.40;9.20;;;;;;;7.17;59.63;98125.25;106871;1276;22579;-76
2023/05/10 01:07:33;;;;;;;11.80;8.80;;;;;;;7.13;59.58;98119.96;106874;1276;22861;-76
2023/05/10 01:10:01;;;;;;;11.10;8.40;;;;;;;7.06;59.46;98118.95;106896;1276;25372;-77
2023/05/10 01:12:30;;;;;;;10.50;9.30;;;;;;;7.00;59.51;98114.52;106778;1276;22647;-77
2023/05/10 01:14:59;;;;;;;12.70;8.90;;;;;;;6.93;59.68;98112.20;106737;1276;25458;-76
2023/05/10 01:17:27;;;;;;;9.60;8.60;;;;;;;6.88;59.75;98110.82;106887;1276;22531;-77
2023/05/10 01:19:55;;;;;;;11.10;10.00;;;;;;;6.84;59.69;98111.86;106933;1276;24303;-77
2023/05/10 01:23:10;;;;;;;13.30;8.70;;;;;;;6.79;59.85;98108.55;106627;1276;22670;-77
2023/05/10 01:26:03;;;;;;;10.50;9.50;;;;;;;6.73;59.93;98106.88;106635;1276;22577;-78
2023/05/10 01:28:46;;;;;;;10.40;9.10;;;;;;;6.70;59.82;98105.32;106655;1276;22630;-77
2023/05/10 01:32:00;;;;;;;10.80;9.70;;;;;;;6.66;59.83;98105.80;106881;1276;25392;-77
2023/05/10 01:34:42;;;;;;;11.40;9.30;;;;;;;6.61;59.90;98108.27;106769;1276;22790;-77
2023/05/10 01:37:25;;;;;;;13.40;9.80;;;;;;;6.57;59.91;98106.48;106851;1276;22518;-77
2023/05/10 01:40:19;;;;;;;16.20;11.60;;;;;;;6.53;59.97;98106.17;106932;1276;25274;-77
2023/05/10 01:42:52;;;;;;;13.30;9.50;;;;;;;6.46;60.03;98101.63;106785;1276;24075;-77
2023/05/10 01:45:28;;;;;;;12.90;9.40;;;;;;;6.43;60.21;98097.11;106952;1276;25402;-77
2023/05/10 01:48:05;;;;;;;10.60;9.50;;;;;;;6.37;60.23;98096.36;106891;1276;22638;-77
2023/05/10 01:50:37;;;;;;;10.10;9.20;;;;;;;6.35;60.37;98094.70;106910;1276;25382;-78
2023/05/10 01:53:08;;;;;;;12.60;11.30;;;;;;;6.33;60.54;98092.57;106901;1276;24234;-78
2023/05/10 01:55:46;;;;;;;14.00;12.40;;;;;;;6.31;60.62;98087.58;106918;1276;22536;-78
2023/05/10 01:58:20;;;;;;;11.20;9.70;;;;;;;6.29;60.56;98082.22;106623;1276;22560;-77
2023/05/10 02:00:50;;;;;;;13.90;11.00;;;;;;;6.31;61.08;98080.61;106903;1276;22536;-77
2023/05/10 02:03:23;;;;;;;11.80;8.90;;;;;;;6.31;61.12;98077.84;106910;1275;22924;-78
2023/05/10 02:05:53;;;;;;;14.20;9.40;;;;;;;6.28;61.54;98077.94;106957;1276;22790;-78
2023/05/10 02:08:23;;;;;;;10.70;9.60;;;;;;;6.26;61.42;98075.69;107020;1276;25371;-78
2023/05/10 02:10:53;;;;;;;12.80;11.00;;;;;;;6.23;61.97;98071.73;106756;1276;25272;-78
2023/05/10 02:13:24;;;;;;;11.60;9.60;;;;;;;6.16;61.68;98072.41;106934;1276;25323;-77
2023/05/10 02:15:54;;;;;;;9.60;8.60;;;;;;;6.11;61.72;98068.66;106657;1276;22666;-79
2023/05/10 02:18:25;;;;;;;15.90;9.70;;;;;;;6.10;61.82;98073.59;106942;1276;22633;-77
2023/05/10 02:20:55;;;;;;;10.70;9.50;;;;;;;6.11;61.67;98067.90;106961;1276;22529;-78
2023/05/10 02:23:24;;;;;;;11.70;10.50;;;;;;;6.09;61.74;98065.98;106915;1276;25413;-79
2023/05/10 02:25:55;;;;;;;11.90;10.60;;;;;;;6.05;61.68;98063.56;106911;1276;25239;-77
2023/05/10 02:28:25;;;;;;;11.20;10.10;;;;;;;6.01;61.68;98063.02;106892;1276;24661;-77
2023/05/10 02:30:55;;;;;;;12.30;9.80;;;;;;;5.97;61.86;98059.65;106949;1276;25706;-77
2023/05/10 02:33:24;;;;;;;10.00;9.00;;;;;;;5.92;62.18;98060.80;106660;1276;25130;-77
2023/05/10 02:35:54;;;;;;;10.40;8.50;;;;;;;5.89;61.99;98062.49;106882;1276;22520;-77
2023/05/10 02:38:23;;;;;;;10.50;9.00;;;;;;;5.89;62.55;98060.55;107030;1276;22619;-79
2023/05/10 02:40:52;;;;;;;9.80;8.30;;;;;;;5.89;63.28;98059.65;106906;1276;22757;-79
2023/05/10 02:43:22;;;;;;;11.50;9.20;;;;;;;5.94;63.44;98059.86;106917;1276;25244;-81
2023/05/10 02:45:51;;;;;;;10.10;8.20;;;;;;;6.00;64.07;98061.67;106782;1276;22599;-79
2023/05/10 02:48:19;;;;;;;11.00;8.70;;;;;;;6.07;64.00;98059.88;106984;1276;22532;-79
2023/05/10 02:50:52;;;;;;;10.60;8.80;;;;;;;6.10;63.81;98057.80;106960;1275;25274;-79
2023/05/10 02:53:31;;;;;;;10.40;9.00;;;;;;;6.09;63.84;98056.73;107012;1276;23016;-78
2023/05/10 02:56:04;;;;;;;11.60;10.40;;;;;;;6.08;63.51;98056.14;107007;1276;22511;-81
2023/05/10 02:58:32;;;;;;;12.10;9.40;;;;;;;6.05;63.70;98059.77;106834;1276;22527;-80
2023/05/10 03:01:00;;;;;;;10.30;9.30;;;;;;;6.03;63.53;98055.81;106654;1276;24343;-80
2023/05/10 03:03:28;;;;;;;10.50;9.10;;;;;;;5.99;63.45;98058.64;106882;1276;22536;-79
2023/05/10 03:05:57;;;;;;;11.50;9.20;;;;;;;5.96;63.36;98060.65;106845;1276;24242;-80
2023/05/10 03:08:26;;;;;;;10.20;9.20;;;;;;;5.91;63.47;98060.78;106990;1276;23012;-79
2023/05/10 03:11:16;;;;;;;9.80;8.70;;;;;;;5.88;63.70;98060.98;106925;1276;22777;-77
2023/05/10 03:13:48;;;;;;;12.30;9.40;;;;;;;5.83;63.42;98061.66;107199;1276;24371;-78
2023/05/10 03:16:27;;;;;;;11.40;10.10;;;;;;;5.80;63.37;98061.07;107202;1276;25632;-77
2023/05/10 03:19:13;;;;;;;10.90;9.70;;;;;;;5.78;63.67;98061.33;107411;1276;25993;-77
2023/05/10 03:21:44;;;;;;;10.10;9.10;;;;;;;5.73;63.53;98056.56;107203;1276;22605;-78
2023/05/10 03:24:15;;;;;;;13.60;8.50;;;;;;;5.69;63.47;98056.48;106811;1276;25457;-77
2023/05/10 03:26:45;;;;;;;13.20;7.90;;;;;;;5.70;63.68;98059.97;106725;1276;26503;-80
2023/05/10 03:29:17;;;;;;;9.60;7.70;;;;;;;5.73;64.04;98056.83;107061;1276;24358;-78
2023/05/10 03:31:46;;;;;;;11.60;8.90;;;;;;;5.76;64.40;98054.27;107067;1276;26673;-78
2023/05/10 03:34:14;;;;;;;12.00;8.90;;;;;;;5.79;64.48;98055.35;107101;1276;22630;-76
2023/05/10 03:36:42;;;;;;;10.50;9.10;;;;;;;5.82;64.41;98055.67;106964;1276;22640;-80
2023/05/10 03:39:10;;;;;;;11.80;9.20;;;;;;;5.83;64.43;98054.61;106904;1254;22577;-79
2023/05/10 03:41:38;;;;;;;9.40;8.20;;;;;;;5.84;64.34;98052.85;106899;1276;24064;-79
2023/05/10 03:44:06;;;;;;;14.30;9.70;;;;;;;5.84;64.32;98054.83;106958;1276;26505;-79
2023/05/10 03:46:34;;;;;;;9.80;8.40;;;;;;;5.86;64.61;98052.48;106968;1276;22631;-77
2023/05/10 03:49:03;;;;;;;10.10;9.10;;;;;;;5.86;64.38;98049.17;106934;1276;22516;-81
2023/05/10 03:51:31;;;;;;;9.80;8.80;;;;;;;5.88;64.53;98049.91;106908;1276;25249;-78
2023/05/10 03:53:59;;;;;;;12.50;9.60;;;;;;;5.89;64.33;98050.94;106586;1276;25509;-78
2023/05/10 03:56:28;;;;;;;12.40;9.40;;;;;;;5.92;64.52;98051.05;106895;1276;25322;-77
2023/05/10 03:58:56;;;;;;;13.20;9.30;;;;;;;5.93;64.53;98050.38;106773;1275;22648;-77
2023/05/10 04:01:24;;;;;;;15.20;12.50;;;;;;;5.95;64.59;98054.41;106872;1276;22650;-76
2023/05/10 04:03:52;;;;;;;17.20;14.10;;;;;;;5.97;64.55;98054.23;106795;1276;24533;-77
2023/05/10 04:06:20;;;;;;;13.90;10.30;;;;;;;6.01;64.55;98053.92;106741;1276;22541;-76
2023/05/10 04:08:48;;;;;;;12.60;10.10;;;;;;;6.08;64.63;98053.52;106925;1276;23505;-77
2023/05/10 04:11:16;;;;;;;21.40;9.90;;;;;;;6.15;65.02;98053.46;106549;1276;24304;-77
2023/05/10 04:13:44;;;;;;;11.90;10.20;;;;;;;6.24;65.78;98057.48;106736;1276;22647;-77
2023/05/10 04:16:12;;;;;;;16.10;11.10;;;;;;;6.31;66.01;98056.42;106641;1276;22575;-77
2023/05/10 04:18:40;;;;;;;15.70;10.90;;;;;;;6.38;65.75;98057.71;106847;1276;22560;-80
2023/05/10 04:21:12;;;;;;;13.60;10.60;;;;;;;6.47;65.94;98057.17;106903;1272;25322;-76
2023/05/10 04:23:41;;;;;;;12.60;9.70;;;;;;;6.54;65.68;98061.40;106661;1276;24361;-77
2023/05/10 04:26:08;;;;;;;16.00;9.60;;;;;;;6.64;66.49;98061.61;106934;1276;22527;-77
2023/05/10 04:28:36;;;;;;;11.70;10.30;;;;;;;6.75;66.07;98062.14;106946;1276;22793;-76
2023/05/10 04:31:06;;;;;;;12.50;8.30;;;;;;;6.81;66.43;98064.02;106765;1276;25350;-77
2023/05/10 04:33:35;;;;;;;10.30;8.10;;;;;;;7.01;66.96;98060.98;106949;1276;23167;-76
2023/05/10 04:36:03;;;;;;;14.40;8.30;;;;;;;7.36;67.79;98066.57;106864;1276;24367;-76
2023/05/10 04:38:31;;;;;;;11.30;9.80;;;;;;;7.79;68.51;98064.77;106528;1276;22552;-77
2023/05/10 04:41:10;;;;;;;11.90;8.60;;;;;;;8.27;67.83;98064.44;106794;1276;23535;-77
2023/05/10 04:43:38;;;;;;;10.60;8.00;;;;;;;8.75;67.97;98062.42;106927;1276;24101;-77
2023/05/10 04:46:07;;;;;;;8.50;7.70;;;;;;;9.09;67.57;98061.23;106884;1276;22528;-77
2023/05/10 04:48:35;;;;;;;9.50;8.00;;;;;;;9.38;66.91;98063.33;106774;1276;22537;-75
2023/05/10 04:51:03;;;;;;;10.90;7.60;;;;;;;9.61;66.38;98062.86;106751;1276;22646;-75
2023/05/10 04:53:32;;;;;;;11.60;8.40;;;;;;;9.77;65.83;98064.64;107387;1269;24056;-76
2023/05/10 04:56:00;;;;;;;10.20;7.30;;;;;;;9.88;64.93;98064.71;106766;1275;25393;-75
2023/05/10 04:58:28;;;;;;;9.70;7.70;;;;;;;9.96;65.12;98061.85;106787;1276;23158;-75
2023/05/10 05:00:56;;;;;;;10.50;7.80;;;;;;;10.13;64.59;98062.05;106772;1276;22524;-76
2023/05/10 05:03:24;;;;;;;11.20;7.80;;;;;;;10.22;64.23;98057.68;106747;1276;24395;-74
2023/05/10 05:05:52;;;;;;;8.30;7.50;;;;;;;10.37;63.05;98055.89;106749;1275;22809;-74
2023/05/10 05:08:20;;;;;;;9.50;7.40;;;;;;;10.41;63.14;98058.75;106873;1266;22516;-75
2023/05/10 05:10:50;;;;;;;9.00;7.70;;;;;;;10.52;62.95;98062.29;106906;1263;24305;-75
2023/05/10 05:13:18;;;;;;;10.40;7.10;;;;;;;10.59;62.50;98058.85;106739;1275;22785;-74
2023/05/10 05:15:46;;;;;;;9.90;7.20;;;;;;;10.66;62.10;98056.46;106872;1275;22520;-75
2023/05/10 05:18:14;;;;;;;7.80;6.60;;;;;;;10.78;62.28;98057.13;106792;1276;22520;-75
2023/05/10 05:20:42;;;;;;;10.10;7.40;;;;;;;10.89;61.79;98056.23;106808;1276;24078;-74
2023/05/10 05:23:10;;;;;;;8.00;7.20;;;;;;;10.97;61.85;98058.30;106763;1276;25346;-75
2023/05/10 05:25:38;;;;;;;8.70;6.70;;;;;;;11.08;61.56;98056.48;106778;1276;22531;-76
2023/05/10 05:28:06;;;;;;;8.80;7.30;;;;;;;11.18;60.98;98060.20;106579;1277;24062;-75
2023/05/10 05:30:34;;;;;;;12.90;7.60;;;;;;;11.17;60.72;98061.40;106596;1277;22640;-75
2023/05/10 05:33:02;;;;;;;9.30;6.90;;;;;;;11.28;60.30;98060.70;106714;1263;22545;-76
2023/05/10 05:35:30;;;;;;;10.70;7.90;;;;;;;11.38;60.30;98060.89;106754;1272;22524;-76
2023/05/10 05:37:58;;;;;;;9.00;7.10;;;;;;;11.40;59.58;98057.60;106756;1276;22514;-76
2023/05/10 05:40:26;;;;;;;10.50;8.00;;;;;;;11.39;59.69;98055.84;106938;1272;22987;-76
2023/05/10 05:42:55;;;;;;;14.10;8.70;;;;;;;11.45;59.66;98049.36;106890;1276;22960;-76
2023/05/10 05:45:23;;;;;;;12.10;8.10;;;;;;;11.34;59.38;98047.15;106915;1276;22643;-76
2023/05/10 05:47:51;;;;;;;10.40;8.00;;;;;;;11.16;59.11;98047.77;106858;1276;22592;-77
2023/05/10 05:50:19;;;;;;;8.90;7.20;;;;;;;10.91;58.83;98045.36;106889;1276;168580;-76
2023/05/10 05:52:47;;;;;;;11.20;7.60;;;;;;;10.72;58.74;98043.77;107021;1272;24340;-76
2023/05/10 05:55:14;;;;;;;8.90;7.30;;;;;;;10.58;58.94;98047.17;107740;1277;22318;-77
2023/05/10 05:57:43;;;;;;;9.30;7.10;;;;;;;10.51;58.67;98052.98;110363;1277;23060;-77
2023/05/10 06:00:11;;;;;;;8.90;7.50;;;;;;;10.46;58.53;98049.52;107227;1277;23437;-76
2023/05/10 06:02:39;;;;;;;8.90;7.80;;;;;;;10.40;58.56;98054.30;107351;1277;22613;-78
2023/05/10 06:05:08;;;;;;;12.60;7.90;;;;;;;10.39;58.88;98055.83;106820;1277;25218;-76
2023/05/10 06:07:36;;;;;;;10.20;7.60;;;;;;;10.47;58.72;98056.61;106839;1277;22518;-75
2023/05/10 06:10:05;;;;;;;9.40;7.40;;;;;;;10.52;58.50;98057.83;106533;1272;23154;-76
2023/05/10 06:12:33;;;;;;;10.30;7.70;;;;;;;10.54;58.38;98056.23;106684;1277;22533;-77
2023/05/10 06:15:02;;;;;;;11.60;7.10;;;;;;;10.59;58.69;98055.77;106676;1277;24197;-76
2023/05/10 06:17:30;;;;;;;7.50;6.60;;;;;;;10.67;58.70;98055.73;106806;1277;23338;-82
2023/05/10 06:19:58;;;;;;;14.10;7.60;;;;;;;10.76;58.64;98060.88;106926;1277;25496;-77
2023/05/10 06:22:27;;;;;;;8.30;7.40;;;;;;;10.87;58.60;98058.42;106723;1277;24222;-77
2023/05/10 06:24:55;;;;;;;8.40;7.00;;;;;;;11.00;58.59;98059.82;106721;1277;22540;-75
2023/05/10 06:27:23;;;;;;;8.70;7.60;;;;;;;11.09;58.26;98062.40;106644;1277;22596;-76
2023/05/10 06:29:51;;;;;;;8.90;7.00;;;;;;;11.16;57.97;98065.68;106734;1276;25323;-76
2023/05/10 06:32:32;;;;;;;12.90;8.60;;;;;;;11.18;57.78;98063.45;106749;1276;24285;-75
2023/05/10 06:35:00;;;;;;;8.60;7.10;;;;;;;11.26;57.92;98064.83;106755;1276;22557;-76
2023/05/10 06:37:28;;;;;;;13.90;10.00;;;;;;;11.34;57.83;98058.36;106764;1276;22647;-75
2023/05/10 06:39:56;;;;;;;13.60;10.10;;;;;;;11.43;57.72;98056.80;106769;1276;25464;-76
2023/05/10 06:42:25;;;;;;;9.50;7.10;;;;;;;11.49;57.69;98056.02;106795;1276;24263;-77
2023/05/10 06:44:53;;;;;;;10.60;6.70;;;;;;;11.56;57.52;98056.11;106919;1276;24234;-77
2023/05/10 06:47:21;;;;;;;11.60;7.70;;;;;;;11.64;57.24;98059.55;106937;1276;22535;-77
2023/05/10 06:49:49;;;;;;;10.70;7.10;;;;;;;11.70;56.90;98054.20;106988;1276;23010;-78
2023/05/10 06:52:17;;;;;;;10.30;6.20;;;;;;;11.75;56.81;98054.95;106904;1263;25384;-77
2023/05/10 06:54:45;;;;;;;12.80;9.20;;;;;;;11.83;56.88;98055.83;106931;1276;23243;-76
2023/05/10 06:57:13;;;;;;;11.60;6.70;;;;;;;11.93;56.75;98053.85;106762;1276;22765;-78
2023/05/10 06:59:58;;;;;;;;;;;;;;;12.01;56.88;98057.27;106790;1276;22510;-76
2023/05/10 07:02:26;;;;;;;9.00;6.30;;;;;;;12.12;57.14;98050.36;106511;1276;22759;-76
2023/05/10 07:04:55;;;;;;;8.90;6.40;;;;;;;12.26;56.53;98052.30;106601;1267;22568;-79
2023/05/10 07:07:25;;;;;;;9.30;6.00;;;;;;;12.38;56.56;98049.92;106869;1276;22586;-76
2023/05/10 07:09:53;;;;;;;11.30;7.10;;;;;;;12.50;56.09;98049.79;106592;1276;23025;-76
2023/05/10 07:12:21;;;;;;;9.40;5.80;;;;;;;12.61;55.59;98048.11;106739;1276;22541;-77
2023/05/10 07:14:49;;;;;;;9.00;5.30;;;;;;;12.75;56.08;98047.89;106903;1276;23784;-77
2023/05/10 07:17:17;;;;;;;9.60;6.20;;;;;;;12.87;55.35;98048.05;106485;1276;25542;-78
2023/05/10 07:19:45;;;;;;;7.70;5.80;;;;;;;12.94;54.66;98043.60;106713;1275;22531;-77
2023/05/10 07:22:13;;;;;;;7.90;5.90;;;;;;;13.02;54.69;98043.67;106766;1276;22528;-77
2023/05/10 07:24:41;;;;;;;7.30;6.40;;;;;;;13.11;54.04;98044.96;106739;1276;25337;-77
2023/05/10 07:27:09;;;;;;;9.30;5.60;;;;;;;13.19;53.74;98045.53;106910;1276;22598;-77
2023/05/10 07:29:37;;;;;;;7.80;5.40;;;;;;;13.28;53.60;98047.66;106720;1277;25552;-77
2023/05/10 07:32:05;;;;;;;8.40;5.50;;;;;;;13.40;54.02;98045.11;106575;1277;22556;-78
2023/05/10 07:34:34;;;;;;;8.00;5.50;;;;;;;13.56;52.80;98045.31;106434;1277;25521;-76
2023/05/10 07:37:02;;;;;;;10.70;7.30;;;;;;;13.67;52.68;98048.14;106794;1269;22545;-77
2023/05/10 07:39:30;;;;;;;7.20;5.70;;;;;;;13.77;52.67;98049.22;106572;1277;25509;-76
2023/05/10 07:41:58;;;;;;;8.20;5.10;;;;;;;13.86;52.09;98050.98;106680;1276;26710;-77
2023/05/10 07:44:26;;;;;;;7.80;6.10;;;;;;;13.97;52.03;98049.77;106797;1276;22789;-75
2023/05/10 07:46:53;;;;;;;8.60;5.70;;;;;;;14.08;52.18;98048.78;107047;1276;22544;-77
2023/05/10 07:49:23;;;;;;;7.00;5.30;;;;;;;14.20;51.93;98047.11;107010;1276;24222;-76
2023/05/10 07:51:51;;;;;;;6.00;5.20;;;;;;;14.31;52.00;98045.58;107022;1276;25308;-76
2023/05/10 07:54:20;;;;;;;12.00;5.40;;;;;;;14.41;51.11;98044.10;107000;1277;22710;-76
2023/05/10 07:56:48;;;;;;;7.40;5.20;;;;;;;14.48;50.82;98047.48;106668;1277;22587;-76
2023/05/10 07:59:17;;;;;;;10.40;5.30;;;;;;;14.57;51.13;98047.59;106611;1277;22517;-75
2023/05/10 08:01:45;;;;;;;7.90;4.50;;;;;;;14.71;51.06;98040.78;106657;1277;24189;-75
2023/05/10 08:04:13;;;;;;;8.60;5.20;;;;;;;14.85;50.15;98040.58;106647;1277;24174;-75
2023/05/10 08:06:41;;;;;;;8.70;5.80;;;;;;;14.92;49.22;98036.77;106491;1277;22532;-76
2023/05/10 08:09:10;;;;;;;11.90;5.40;;;;;;;14.97;48.92;98038.16;106610;1277;22718;-77
2023/05/10 08:11:38;;;;;;;6.50;4.40;;;;;;;15.09;49.12;98039.02;106658;1277;22792;-76
2023/05/10 08:14:06;;;;;;;7.20;5.30;;;;;;;15.20;48.18;98038.24;107003;1277;23903;-75
2023/05/10 08:16:34;;;;;;;8.90;5.20;;;;;;;15.29;48.47;98037.91;107129;1277;24375;-77
2023/05/10 08:19:02;;;;;;;8.50;5.00;;;;;;;15.40;48.06;98036.73;107089;1272;24214;-77
2023/05/10 08:21:31;;;;;;;8.30;4.90;;;;;;;15.51;47.38;98042.28;106753;1277;22544;-78
2023/05/10 08:23:59;;;;;;;6.90;4.60;;;;;;;15.60;46.54;98036.90;106949;1277;24131;-77
2023/05/10 08:26:27;;;;;;;7.30;4.70;;;;;;;15.66;46.71;98035.45;107021;1277;24190;-76
2023/05/10 08:28:55;;;;;;;8.70;4.50;;;;;;;15.75;46.94;98038.96;107035;1277;25368;-77
2023/05/10 08:31:23;;;;;;;5.50;4.30;;;;;;;15.86;46.40;98039.55;106865;1276;22544;-75
2023/05/10 08:33:52;;;;;;;7.90;4.90;;;;;;;15.94;46.15;98038.83;106866;1276;25606;-76
2023/05/10 08:36:21;;;;;;;7.60;4.80;;;;;;;16.07;45.37;98040.80;107047;1276;25155;-76
2023/05/10 08:38:54;;;;;;;9.50;4.30;;;;;;;16.14;45.10;98039.23;106904;1277;23035;-75
2023/05/10 08:41:25;;;;;;;8.50;4.20;;;;;;;16.23;44.04;98041.95;106849;1269;22571;-76
2023/05/10 08:43:54;;;;;;;9.70;4.00;;;;;;;16.34;44.36;98042.17;106858;1253;22531;-76
2023/05/10 08:46:22;;;;;;;5.90;3.80;;;;;;;16.48;43.66;98038.58;106867;1276;22538;-75
2023/05/10 08:48:52;;;;;;;8.40;4.60;;;;;;;16.56;42.58;98044.00;106901;1276;25313;-75
2023/05/10 08:51:26;;;;;;;9.80;5.50;;;;;;;16.63;42.84;98041.98;106764;1276;22949;-75
2023/05/10 08:53:55;;;;;;;9.60;4.00;;;;;;;16.77;43.11;98046.16;106897;1276;25606;-76
2023/05/10 08:56:23;;;;;;;5.90;4.10;;;;;;;16.87;41.59;98046.42;106789;1276;23941;-75
2023/05/10 08:58:52;;;;;;;10.40;4.60;;;;;;;16.89;41.70;98046.04;106886;1276;22657;-75
2023/05/10 09:01:21;;;;;;;8.30;4.00;;;;;;;16.93;41.70;98039.88;106771;1276;25379;-75
2023/05/10 09:03:50;;;;;;;5.70;3.60;;;;;;;16.99;40.89;98039.05;106887;1276;24371;-74
2023/05/10 09:06:18;;;;;;;9.80;4.30;;;;;;;17.04;40.35;98038.54;106781;1276;22634;-75
2023/05/10 09:08:47;;;;;;;6.60;4.30;;;;;;;17.08;40.08;98040.67;106768;1276;22542;-75
2023/05/10 09:11:17;;;;;;;9.00;4.30;;;;;;;17.06;40.28;98042.23;106795;1276;25262;-76
2023/05/10 09:13:47;;;;;;;10.70;4.30;;;;;;;17.11;40.40;98034.88;106791;1276;22686;-75
2023/05/10 09:16:15;;;;;;;5.60;3.70;;;;;;;17.21;40.32;98039.79;106869;1276;22540;-75
2023/05/10 09:18:49;;;;;;;8.60;4.10;;;;;;;17.37;40.39;98043.66;107073;1276;22644;-76
2023/05/10 09:21:19;;;;;;;8.00;4.00;;;;;;;17.51;38.91;98037.88;106789;1276;24306;-75
2023/05/10 09:23:49;;;;;;;11.30;4.00;;;;;;;17.61;39.03;98032.58;106807;1276;22637;-75
2023/05/10 09:26:23;;;;;;;9.30;4.90;;;;;;;17.70;39.04;98030.54;106905;1276;25459;-76
2023/05/10 09:28:52;;;;;;;5.80;3.40;;;;;;;17.82;38.92;98021.45;107112;1276;23007;-76
2023/05/10 09:31:20;;;;;;;6.60;3.80;;;;;;;17.91;38.84;98023.89;107025;1267;24252;-76
2023/05/10 09:33:49;;;;;;;7.80;3.60;;;;;;;18.00;37.53;98022.38;106933;1277;22514;-76
2023/05/10 09:36:17;;;;;;;11.40;3.60;;;;;;;18.00;37.37;98024.00;106850;1277;22635;-77
2023/05/10 09:38:51;;;;;;;6.40;3.70;;;;;;;18.01;37.82;98025.42;106889;1277;22544;-76
2023/05/10 09:41:21;;;;;;;6.00;3.40;;;;;;;18.10;37.81;98025.85;106942;1277;22664;-76
2023/05/10 09:43:51;;;;;;;4.70;3.40;;;;;;;18.19;38.02;98024.06;106928;1277;24231;-76
2023/05/10 09:46:19;;;;;;;8.00;3.20;;;;;;;18.31;37.29;98024.13;106960;1276;22528;-76
2023/05/10 09:48:48;;;;;;;4.50;3.40;;;;;;;18.48;37.66;98026.46;106855;1277;22580;-76
2023/05/10 09:51:34;;;;;;;5.70;3.40;;;;;;;18.66;37.44;98022.65;106926;1264;22575;-76
2023/05/10 09:54:16;;;;;;;7.70;4.10;;;;;;;18.79;37.52;98023.04;106884;1277;22542;-76
2023/05/10 09:56:44;;;;;;;8.10;3.50;;;;;;;18.90;37.25;98020.03;106902;1277;22632;-76
2023/05/10 09:59:12;;;;;;;7.60;3.50;;;;;;;18.98;36.97;98025.09;106887;1277;25342;-76
2023/05/10 10:01:41;;;;;;;8.00;3.40;;;;;;;19.08;37.24;98014.96;106905;1277;23299;-77
2023/05/10 10:04:10;;;;;;;7.10;3.90;;;;;;;19.18;35.79;98013.34;106881;1277;22598;-76
2023/05/10 10:06:39;;;;;;;7.90;3.60;;;;;;;19.17;36.42;98009.64;107026;1276;25274;-76
2023/05/10 10:09:09;;;;;;;7.40;3.90;;;;;;;19.26;36.32;98006.13;107043;1276;25337;-76
2023/05/10 10:11:38;;;;;;;6.00;3.40;;;;;;;19.34;35.87;98007.57;107069;1272;22562;-76
2023/05/10 10:14:06;;;;;;;7.00;3.70;;;;;;;19.45;36.27;98005.64;107037;1276;22528;-76
2023/05/10 10:16:34;;;;;;;6.00;3.80;;;;;;;19.51;36.03;98002.98;107067;1276;25596;-76
2023/05/10 10:19:02;;;;;;;8.80;3.70;;;;;;;19.48;35.78;97998.77;107095;1276;22614;-76
2023/05/10 10:21:32;;;;;;;8.00;3.90;;;;;;;19.53;35.32;97995.29;106557;1276;22592;-75
2023/05/10 10:24:01;;;;;;;9.90;4.00;;;;;;;19.60;35.56;97999.89;106838;1276;22532;-75
2023/05/10 10:26:29;;;;;;;7.20;3.80;;;;;;;19.65;35.62;97994.17;106608;1256;22926;-75
2023/05/10 10:29:04;;;;;;;11.00;4.40;;;;;;;19.69;35.44;97989.52;106805;1276;25313;-75
2023/05/10 10:32:02;;;;;;;5.00;3.70;;;;;;;19.69;35.46;97991.95;106725;1276;22613;-75
2023/05/10 10:34:31;;;;;;;6.20;3.20;;;;;;;19.68;34.90;97986.84;106588;1258;22524;-75
2023/05/10 10:37:05;;;;;;;4.40;3.30;;;;;;;19.65;34.21;97988.17;106603;1277;25417;-76
2023/05/10 10:39:36;;;;;;;9.40;3.60;;;;;;;19.71;34.03;97984.23;106599;1277;24248;-76
2023/05/10 10:42:05;;;;;;;4.10;2.80;;;;;;;19.77;34.45;97974.62;106499;1277;22578;-76
2023/05/10 10:44:33;;;;;;;5.00;3.10;;;;;;;19.78;33.49;97979.48;106553;1277;23882;-76
2023/05/10 10:47:08;;;;;;;5.50;3.00;;;;;;;19.77;33.85;97981.17;106629;1272;24363;-76
2023/05/10 10:49:45;;;;;;;6.50;3.20;;;;;;;19.60;33.54;97981.09;106724;1277;22538;-76
2023/05/10 10:52:35;;;;;;;8.10;3.40;;;;;;;19.38;33.60;97975.52;106608;1277;26046;-76
2023/05/10 10:55:03;;;;;;;5.00;3.70;;;;;;;19.39;34.36;97970.14;106706;1277;22634;-78
2023/05/10 10:58:00;;;;;;;7.70;3.60;;;;;;;19.58;34.47;97964.88;106698;1277;22630;-77
2023/05/10 11:00:30;;;;;;;9.30;4.20;;;;;;;19.81;34.27;97965.48;106833;1277;22535;-78
2023/05/10 11:03:08;;;;;;;8.90;3.50;;;;;;;19.97;34.70;97964.57;107077;1277;22609;-77
2023/05/10 11:05:41;;;;;;;6.30;3.80;;;;;;;20.24;34.63;97963.61;106932;1277;24067;-77
2023/05/10 11:08:12;;;;;;;10.30;3.10;;;;;;;20.34;33.63;97960.23;106937;1272;24064;-76
2023/05/10 11:10:52;;;;;;;4.30;3.00;;;;;;;20.30;33.53;97955.08;106877;1265;22532;-75
2023/05/10 11:13:31;;;;;;;7.70;4.10;;;;;;;20.36;33.93;97959.56;106844;1273;22547;-76
2023/05/10 11:16:10;;;;;;;5.50;3.10;;;;;;;20.46;32.97;97958.89;106838;1277;25469;-76
2023/05/10 11:18:38;;;;;;;6.40;3.20;;;;;;;20.54;33.80;97958.73;106848;1277;22648;-78
2023/05/10 11:21:10;;;;;;;4.30;2.70;;;;;;;20.70;32.74;97954.66;106550;1277;25393;-75
2023/05/10 11:23:48;;;;;;;6.70;2.80;;;;;;;20.76;32.25;97956.27;106760;1275;22814;-79
2023/05/10 11:26:18;;;;;;;4.40;2.80;;;;;;;20.84;32.23;97961.09;106844;1277;23037;-77
2023/05/10 11:28:48;;;;;;;6.70;3.20;;;;;;;20.93;31.89;97952.48;106997;1277;24482;-77
2023/05/10 11:31:17;;;;;;;8.70;2.60;;;;;;;21.03;32.28;97954.75;106802;1276;22720;-77
2023/05/10 11:33:50;;;;;;;6.90;3.00;;;;;;;21.15;31.68;97953.94;107085;1276;25322;-76
2023/05/10 11:36:21;;;;;;;7.00;3.50;;;;;;;21.14;31.94;97954.94;107086;1276;25449;-77
2023/05/10 11:38:48;;;;;;;10.50;3.40;;;;;;;21.24;31.81;97952.67;107090;1276;22734;-77